地図

経路データ

SID SEASON NUMBER BASIN SUBBASIN NAME ISO_TIME NATURE LAT LON WMO_WIND WMO_PRES WMO_AGENCY TRACK_TYPE DIST2LAND LANDFALL IFLAG USA_AGENCY USA_ATCF_ID USA_LAT USA_LON USA_RECORD USA_STATUS USA_WIND USA_PRES USA_SSHS USA_R34_NE USA_R34_SE USA_R34_SW USA_R34_NW USA_R50_NE USA_R50_SE USA_R50_SW USA_R50_NW USA_R64_NE USA_R64_SE USA_R64_SW USA_R64_NW USA_POCI USA_ROCI USA_RMW USA_EYE TOKYO_LAT TOKYO_LON TOKYO_GRADE TOKYO_WIND TOKYO_PRES TOKYO_R50_DIR TOKYO_R50_LONG TOKYO_R50_SHORT TOKYO_R30_DIR TOKYO_R30_LONG TOKYO_R30_SHORT TOKYO_LAND CMA_LAT CMA_LON CMA_CAT CMA_WIND CMA_PRES HKO_LAT HKO_LON HKO_CAT HKO_WIND HKO_PRES NEWDELHI_LAT NEWDELHI_LON NEWDELHI_GRADE NEWDELHI_WIND NEWDELHI_PRES NEWDELHI_CI NEWDELHI_DP NEWDELHI_POCI REUNION_LAT REUNION_LON REUNION_TYPE REUNION_WIND REUNION_PRES REUNION_TNUM REUNION_CI REUNION_RMW REUNION_R34_NE REUNION_R34_SE REUNION_R34_SW REUNION_R34_NW REUNION_R50_NE REUNION_R50_SE REUNION_R50_SW REUNION_R50_NW REUNION_R64_NE REUNION_R64_SE REUNION_R64_SW REUNION_R64_NW BOM_LAT BOM_LON BOM_TYPE BOM_WIND BOM_PRES BOM_TNUM BOM_CI BOM_RMW BOM_R34_NE BOM_R34_SE BOM_R34_SW BOM_R34_NW BOM_R50_NE BOM_R50_SE BOM_R50_SW BOM_R50_NW BOM_R64_NE BOM_R64_SE BOM_R64_SW BOM_R64_NW BOM_ROCI BOM_POCI BOM_EYE BOM_POS_METHOD BOM_PRES_METHOD NADI_LAT NADI_LON NADI_CAT NADI_WIND NADI_PRES WELLINGTON_LAT WELLINGTON_LON WELLINGTON_WIND WELLINGTON_PRES DS824_LAT DS824_LON DS824_STAGE DS824_WIND DS824_PRES TD9636_LAT TD9636_LON TD9636_STAGE TD9636_WIND TD9636_PRES TD9635_LAT TD9635_LON TD9635_WIND TD9635_PRES TD9635_ROCI NEUMANN_LAT NEUMANN_LON NEUMANN_CLASS NEUMANN_WIND NEUMANN_PRES MLC_LAT MLC_LON MLC_CLASS MLC_WIND MLC_PRES USA_GUST BOM_GUST BOM_GUST_PER REUNION_GUST REUNION_GUST_PER USA_SEAHGT USA_SEARAD_NE USA_SEARAD_SE USA_SEARAD_SW USA_SEARAD_NW STORM_SPEED STORM_DIR
1912210N12124 1912 32 WP MM NOT_NAMED 1912-07-27 16:00:00 NR 11.5000 123.500 main 43 11 __________O___ -1 11.5000 123.500 2 15 289
1912210N12124 1912 32 WP MM NOT_NAMED 1912-07-27 18:00:00 NR 11.6577 123.021 main 24 15 __________P___ -1 11.6577 123.021 2 15 289
1912210N12124 1912 32 WP MM NOT_NAMED 1912-07-27 21:00:00 NR 11.9030 122.312 main 15 11 __________P___ -1 11.9030 122.312 2 15 291
1912210N12124 1912 32 WP MM NOT_NAMED 1912-07-28 00:00:00 NR 12.1732 121.632 main 24 0 __________P___ -1 12.1732 121.632 2 14 294
1912210N12124 1912 32 WP MM NOT_NAMED 1912-07-28 03:00:00 NR 12.4843 120.998 main 0 0 __________P___ -1 12.4843 120.998 2 14 298
1912210N12124 1912 32 WP MM NOT_NAMED 1912-07-28 04:00:00 NR 12.6000 120.800 main 10 10 __________O___ -1 12.6000 120.800 7 13 303
1912210N12124 1912 32 WP MM NOT_NAMED 1912-07-28 06:00:00 NR 12.8514 120.426 main 35 31 __________P___ -1 12.8514 120.426 7 13 308
1912210N12124 1912 32 WP MM NOT_NAMED 1912-07-28 09:00:00 NR 13.2731 119.902 main 44 44 __________P___ -1 13.2731 119.902 7 13 312
1912210N12124 1912 32 WP MM NOT_NAMED 1912-07-28 12:00:00 NR 13.7371 119.398 main 102 107 __________P___ -1 13.7371 119.398 7 14 314
1912210N12124 1912 32 WP MM NOT_NAMED 1912-07-28 15:00:00 NR 14.2309 118.881 main 145 140 __________P___ -1 14.2309 118.881 7 14 314
1912210N12124 1912 32 WP MM NOT_NAMED 1912-07-28 16:00:00 NR 14.4000 118.700 main 157 157 __________O___ -1 14.4000 118.700 7 15 314
1912210N12124 1912 32 WP MM NOT_NAMED 1912-07-28 18:00:00 NR 14.7536 118.314 main 184 184 __________P___ -1 14.7536 118.314 7 16 313
1912210N12124 1912 32 WP MM NOT_NAMED 1912-07-28 21:00:00 NR 15.3034 117.710 main 228 228 __________P___ -1 15.3034 117.710 7 16 313
1912210N12124 1912 32 WP MM NOT_NAMED 1912-07-29 00:00:00 NR 15.8463 117.079 main 279 288 __________P___ -1 15.8463 117.079 7 16 310
1912210N12124 1912 32 WP MM NOT_NAMED 1912-07-29 03:00:00 NR 16.3479 116.423 main 354 355 __________P___ -1 16.3479 116.423 7 16 308
1912210N12124 1912 32 WP MM NOT_NAMED 1912-07-29 04:00:00 NR 16.5000 116.200 main 377 377 __________O___ -1 16.5000 116.200 7 15 304
1912210N12124 1912 32 WP MM NOT_NAMED 1912-07-29 06:00:00 NR 16.7776 115.755 main 425 436 __________P___ -1 16.7776 115.755 7 15 301
1912210N12124 1912 32 WP MM NOT_NAMED 1912-07-29 09:00:00 NR 17.1442 115.070 main 505 428 __________P___ -1 17.1442 115.070 7 15 297
1912210N12124 1912 32 WP MM NOT_NAMED 1912-07-29 12:00:00 NR 17.4567 114.365 main 428 346 __________P___ -1 17.4567 114.365 7 15 293
1912210N12124 1912 32 WP MM NOT_NAMED 1912-07-29 15:00:00 NR 17.7213 113.644 main 346 323 __________P___ -1 17.7213 113.644 7 15 291
1912210N12124 1912 32 WP MM NOT_NAMED 1912-07-29 16:00:00 NR 17.8000 113.400 main 323 267 __________O___ -1 17.8000 113.400 7 15 288
1912210N12124 1912 32 WP MM NOT_NAMED 1912-07-29 18:00:00 NR 17.9539 112.879 main 267 186 __________P___ -1 17.9539 112.879 7 16 286
1912210N12124 1912 32 WP MM NOT_NAMED 1912-07-29 21:00:00 NR 18.1469 112.086 main 186 101 __________P___ -1 18.1469 112.086 7 15 283
1912210N12124 1912 32 WP MM NOT_NAMED 1912-07-30 00:00:00 NR 18.3080 111.315 main 101 30 __________P___ -1 18.3080 111.315 7 14 282
1912210N12124 1912 32 WP MM NOT_NAMED 1912-07-30 03:00:00 NR 18.4527 110.612 main 30 22 __________P___ -1 18.4527 110.612 7 13 282
1912210N12124 1912 32 WP MM NOT_NAMED 1912-07-30 04:00:00 NR 18.5000 110.400 main 22 0 __________O___ -1 18.5000 110.400 2 11 286
1912210N12124 1912 32 WP MM NOT_NAMED 1912-07-30 06:00:00 NR 18.6071 110.034 main 0 0 __________P___ -1 18.6071 110.034 2 10 288
1912210N12124 1912 32 WP MM NOT_NAMED 1912-07-30 09:00:00 NR 18.7624 109.560 main 0 0 __________P___ -1 18.7624 109.560 2 9 290
1912210N12124 1912 32 WP MM NOT_NAMED 1912-07-30 12:00:00 NR 18.9116 109.142 main 0 0 __________P___ -1 18.9116 109.142 2 8 291
1912210N12124 1912 32 WP MM NOT_NAMED 1912-07-30 15:00:00 NR 19.0541 108.738 main 0 0 __________P___ -1 19.0541 108.738 2 8 290
1912210N12124 1912 32 WP MM NOT_NAMED 1912-07-30 16:00:00 NR 19.1000 108.600 main 10 10 __________O___ -1 19.1000 108.600 2 9 289
1912210N12124 1912 32 WP MM NOT_NAMED 1912-07-30 18:00:00 NR 19.1893 108.311 main 33 33 __________P___ -1 19.1893 108.311 2 9 287
1912210N12124 1912 32 WP MM NOT_NAMED 1912-07-30 21:00:00 NR 19.3178 107.850 main 73 83 __________P___ -1 19.3178 107.850 2 9 286
1912210N12124 1912 32 WP MM NOT_NAMED 1912-07-31 00:00:00 NR 19.4411 107.366 main 126 79 __________P___ -1 19.4411 107.366 2 10 285
1912210N12124 1912 32 WP MM NOT_NAMED 1912-07-31 03:00:00 NR 19.5607 106.867 main 79 68 __________P___ -1 19.5607 106.867 2 10 284
1912210N12124 1912 32 WP MM NOT_NAMED 1912-07-31 04:00:00 NR 19.6000 106.700 main 68 __________O___ -1 19.6000 106.700 7 10 284

デジタル台風データ・検索

IBTrACS Databaseについて

本データベースは、米国NOAAが公開する1842年以降の世界の熱帯低気圧のベストトラックデータアーカイブInternational Best Track Archive for Climate Stewardship (IBTrACS)を、ウェブで閲覧しやすい形式に変換したものです。

最終更新日:2021-10-08